Time;durP1;ratioP1;P1;durP2;ratioP2;P2;SDS_P1;SDS_P2;PMS_P1;PMS_P2;Temp;Humidity;BMP_temperature;BMP_pressure;BME280_temperature;BME280_humidity;BME280_pressure;Samples;Min_cycle;Max_cycle;Signal;HPM_P1;HPM_P2
2023/08/25 00:03:07;;;;;;;12.82;8.35;;;18.60;99.90;;;;;;21035911;28;20036;-61
2023/08/25 00:13:09;;;;;;;9.80;8.35;;;18.30;99.90;;;;;;21060934;28;20041;-61
2023/08/25 00:23:11;;;;;;;12.27;10.02;;;18.20;99.90;;;;;;21060677;28;20036;-51
2023/08/25 00:33:13;;;;;;;11.65;9.18;;;18.10;99.90;;;;;;21059295;28;20443;-61
2023/08/25 00:43:14;;;;;;;13.80;9.65;;;18.20;99.90;;;;;;20882002;28;20041;-60
2023/08/25 00:53:17;;;;;;;18.17;9.52;;;18.20;99.90;;;;;;20864679;28;20053;-52
2023/08/25 01:03:19;;;;;;;16.95;10.30;;;18.10;99.90;;;;;;20905146;28;20051;-61
2023/08/25 01:13:51;;;;;;;17.27;11.32;;;18.20;99.90;;;;;;21002161;28;20074;-61
2023/08/25 01:24:18;;;;;;;13.82;10.88;;;18.20;99.90;;;;;;21037211;28;20448;-61
2023/08/25 01:34:20;;;;;;;14.30;10.77;;;18.40;99.90;;;;;;21054819;28;20039;-61
2023/08/25 01:44:27;;;;;;;16.75;12.50;;;18.40;99.90;;;;;;21053990;28;20031;-61
2023/08/25 01:54:30;;;;;;;18.33;12.70;;;18.40;99.90;;;;;;21035611;28;20034;-61
2023/08/25 02:04:32;;;;;;;15.95;13.10;;;18.30;99.90;;;;;;21010068;28;20048;-52
2023/08/25 02:14:34;;;;;;;14.57;12.02;;;18.20;99.90;;;;;;21080597;28;20043;-61
2023/08/25 02:24:35;;;;;;;16.02;12.27;;;18.30;99.90;;;;;;21053231;28;20085;-50
2023/08/25 02:34:37;;;;;;;15.70;10.73;;;18.20;99.90;;;;;;21062061;28;20047;-60
2023/08/25 02:44:39;;;;;;;14.45;10.80;;;18.20;99.90;;;;;;21061418;28;20028;-61
2023/08/25 02:54:41;;;;;;;10.18;9.10;;;18.20;99.90;;;;;;21024526;28;20032;-56
2023/08/25 03:04:43;;;;;;;11.85;9.02;;;18.20;99.90;;;;;;21079071;28;20073;-61
2023/08/25 03:14:46;;;;;;;12.95;8.80;;;18.00;99.90;;;;;;21060327;28;20035;-61
2023/08/25 03:24:49;;;;;;;12.68;8.52;;;18.10;99.90;;;;;;21032519;28;20032;-60
2023/08/25 03:34:50;;;;;;;10.50;8.30;;;18.10;99.90;;;;;;21018047;28;20181;-51
2023/08/25 03:44:54;;;;;;;15.65;8.43;;;18.10;99.90;;;;;;21019204;28;20040;-61
2023/08/25 03:54:56;;;;;;;12.57;8.25;;;18.10;99.90;;;;;;21032767;28;20040;-53
2023/08/25 04:04:58;;;;;;;8.95;7.75;;;17.90;99.90;;;;;;21023424;28;20040;-61
2023/08/25 04:15:00;;;;;;;11.50;8.07;;;17.90;99.90;;;;;;21038176;28;20423;-61
2023/08/25 04:25:06;;;;;;;10.35;7.57;;;17.80;99.90;;;;;;21012524;28;20493;-61
2023/08/25 04:35:08;;;;;;;10.93;7.93;;;17.80;99.90;;;;;;21003581;28;20502;-62
2023/08/25 04:45:13;;;;;;;13.00;7.93;;;18.00;99.90;;;;;;21021524;28;20401;-51
2023/08/25 04:55:15;;;;;;;17.83;11.32;;;18.00;99.90;;;;;;20993138;28;20510;-51
2023/08/25 05:05:17;;;;;;;12.95;8.63;;;18.10;99.90;;;;;;20995739;28;20048;-53
2023/08/25 05:15:20;;;;;;;12.90;7.65;;;18.20;99.90;;;;;;21020892;28;20491;-62
2023/08/25 05:25:23;;;;;;;12.73;7.95;;;18.30;99.90;;;;;;21024468;28;20028;-62
2023/08/25 05:35:25;;;;;;;12.70;8.55;;;18.40;99.90;;;;;;21029034;28;20036;-62
2023/08/25 05:45:27;;;;;;;11.77;8.23;;;18.50;99.90;;;;;;21013795;28;20398;-62
2023/08/25 05:55:30;;;;;;;9.43;7.70;;;18.60;99.90;;;;;;20999526;28;20032;-53
2023/08/25 06:05:32;;;;;;;12.10;7.78;;;18.80;99.90;;;;;;21020182;28;20109;-53
2023/08/25 06:15:34;;;;;;;10.65;7.93;;;19.00;99.90;;;;;;21001719;28;20059;-62
2023/08/25 06:25:37;;;;;;;14.88;7.57;;;19.10;99.90;;;;;;21020493;28;20920;-62
2023/08/25 06:35:39;;;;;;;12.15;6.97;;;19.30;99.90;;;;;;20999573;28;20550;-61
2023/08/25 06:45:40;;;;;;;7.05;6.07;;;20.50;99.90;;;;;;21022772;28;20036;-63
2023/08/25 06:55:43;;;;;;;13.70;6.32;;;22.50;99.90;;;;;;21000768;28;20601;-64
2023/08/25 07:05:44;;;;;;;12.00;6.20;;;24.10;99.90;;;;;;21032444;28;20078;-66
2023/08/25 07:15:46;;;;;;;10.55;6.85;;;25.30;99.90;;;;;;21029633;28;20036;-65
2023/08/25 07:25:52;;;;;;;8.77;6.80;;;26.40;99.90;;;;;;21024385;28;20674;-66
2023/08/25 07:35:54;;;;;;;10.95;7.47;;;27.70;99.90;;;;;;21017446;28;20108;-66
2023/08/25 07:45:56;;;;;;;9.18;8.00;;;28.60;98.90;;;;;;21029704;28;20070;-66
2023/08/25 07:55:58;;;;;;;8.35;7.40;;;28.70;98.30;;;;;;21026971;28;20032;-65
2023/08/25 08:06:00;;;;;;;13.10;7.55;;;29.00;97.60;;;;;;21018846;28;20040;-65
2023/08/25 08:16:02;;;;;;;9.00;8.00;;;29.10;96.90;;;;;;21023015;28;20032;-65
2023/08/25 08:26:06;;;;;;;13.85;8.82;;;29.70;95.90;;;;;;21019250;28;20401;-65
2023/08/25 08:36:09;;;;;;;10.17;7.90;;;29.80;96.90;;;;;;21025509;28;20036;-65
2023/08/25 08:46:15;;;;;;;12.65;8.15;;;30.00;98.40;;;;;;21013882;28;20032;-64
2023/08/25 08:56:18;;;;;;;9.73;7.60;;;30.20;97.60;;;;;;21006293;28;20032;-56
2023/08/25 09:06:20;;;;;;;8.70;7.80;;;30.30;98.50;;;;;;20996204;28;20044;-64
2023/08/25 09:16:22;;;;;;;11.07;8.30;;;30.40;99.90;;;;;;21031252;28;20040;-64
2023/08/25 09:26:25;;;;;;;9.75;8.18;;;30.60;98.80;;;;;;21019440;28;20039;-63
2023/08/25 09:36:29;;;;;;;12.52;9.30;;;30.80;99.90;;;;;;21018320;28;20024;-64
2023/08/25 09:46:32;;;;;;;11.73;8.82;;;31.10;97.10;;;;;;21004539;28;20024;-63
2023/08/25 09:56:36;;;;;;;12.63;9.45;;;31.10;93.50;;;;;;21021514;28;20032;-63
2023/08/25 10:06:39;;;;;;;12.48;9.13;;;31.50;95.00;;;;;;21021020;28;20040;-62
2023/08/25 10:16:52;;;;;;;12.43;9.30;;;31.70;99.20;;;;;;21001989;28;20033;-62
2023/08/25 10:26:55;;;;;;;10.70;9.57;;;31.90;99.90;;;;;;21025939;28;20086;-62
2023/08/25 10:37:22;;;;;;;11.75;9.35;;;32.10;96.90;;;;;;21016920;28;20028;-62
2023/08/25 10:47:24;;;;;;;14.10;9.23;;;32.20;96.40;;;;;;21021904;28;20457;-63
2023/08/25 10:57:31;;;;;;;11.30;9.80;;;32.30;97.00;;;;;;21044079;28;20036;-62
2023/08/25 11:07:42;;;;;;;14.60;8.95;;;32.20;96.50;;;;;;21023091;28;20074;-62
2023/08/25 11:17:49;;;;;;;9.27;8.10;;;32.10;96.70;;;;;;21020183;28;20090;-62
2023/08/25 11:27:54;;;;;;;12.07;8.00;;;31.30;95.00;;;;;;21005311;28;20037;-62
2023/08/25 11:37:58;;;;;;;11.70;8.15;;;31.70;94.60;;;;;;21021636;28;20036;-62
2023/08/25 11:48:00;;;;;;;8.68;6.63;;;32.10;94.50;;;;;;21016342;28;20036;-63
2023/08/25 11:58:11;;;;;;;8.85;7.00;;;;;;;;;;21023776;28;20033;-62
2023/08/25 12:08:17;;;;;;;12.55;8.05;;;32.40;91.10;;;;;;21026092;28;20381;-62
2023/08/25 12:18:20;;;;;;;10.45;8.02;;;32.40;91.50;;;;;;21022026;28;20032;-63
2023/08/25 12:28:22;;;;;;;8.70;7.30;;;32.30;90.00;;;;;;21026371;28;20461;-63
2023/08/25 12:38:24;;;;;;;13.05;8.43;;;32.20;91.20;;;;;;21022505;28;20028;-64
2023/08/25 12:48:26;;;;;;;12.95;8.75;;;32.30;91.60;;;;;;21013436;28;20476;-64
2023/08/25 12:58:28;;;;;;;9.10;8.13;;;32.20;90.90;;;;;;21010333;28;20102;-64
2023/08/25 13:08:30;;;;;;;11.25;7.07;;;31.90;91.40;;;;;;21021212;28;20044;-64
2023/08/25 13:18:32;;;;;;;11.80;8.82;;;31.80;91.70;;;;;;21005097;28;20039;-64
2023/08/25 13:28:34;;;;;;;10.95;8.27;;;32.00;90.70;;;;;;21027087;28;20029;-64
2023/08/25 13:38:36;;;;;;;13.15;8.00;;;31.70;90.30;;;;;;21005201;28;20118;-64
2023/08/25 13:48:38;;;;;;;8.45;7.07;;;31.50;89.40;;;;;;21017607;28;20082;-63
2023/08/25 13:58:40;;;;;;;11.80;7.43;;;31.60;90.30;;;;;;21021571;28;20097;-63
2023/08/25 14:08:44;;;;;;;10.43;7.22;;;31.10;90.60;;;;;;20998947;28;20461;-64
2023/08/25 14:18:46;;;;;;;9.40;7.05;;;31.10;89.30;;;;;;21001933;28;20047;-63
2023/08/25 14:28:48;;;;;;;7.07;6.38;;;31.10;90.40;;;;;;21008873;28;20074;-63
2023/08/25 14:38:50;;;;;;;6.65;5.97;;;31.10;88.30;;;;;;21019358;28;20037;-64
2023/08/25 14:48:52;;;;;;;8.82;5.93;;;31.00;82.70;;;;;;21015993;28;20085;-63
2023/08/25 14:58:54;;;;;;;9.23;5.88;;;30.80;85.20;;;;;;21028154;28;20551;-63
2023/08/25 15:08:56;;;;;;;9.48;6.20;;;29.60;84.00;;;;;;21014463;28;20036;-64
2023/08/25 15:18:57;;;;;;;8.20;6.28;;;29.60;84.40;;;;;;21024792;28;20366;-65
2023/08/25 15:28:59;;;;;;;8.30;5.20;;;28.70;84.10;;;;;;21036523;28;20089;-64
2023/08/25 15:39:03;;;;;;;9.15;5.95;;;27.90;86.10;;;;;;21026173;28;20028;-63
2023/08/25 15:49:05;;;;;;;5.53;4.95;;;27.50;86.90;;;;;;21021374;28;20469;-63
2023/08/25 15:59:07;;;;;;;7.07;5.70;;;27.10;87.20;;;;;;21017028;28;20062;-62
2023/08/25 16:09:08;;;;;;;7.88;5.38;;;26.80;87.90;;;;;;21026844;28;20039;-62
2023/08/25 16:19:10;;;;;;;8.57;5.90;;;26.90;88.60;;;;;;21025065;28;20032;-62
2023/08/25 16:29:12;;;;;;;6.95;5.70;;;25.80;90.30;;;;;;21025096;28;20553;-62
2023/08/25 16:39:14;;;;;;;7.78;5.90;;;24.50;91.80;;;;;;21009937;28;20030;-61
2023/08/25 16:49:16;;;;;;;9.32;5.82;;;23.70;93.50;;;;;;20994890;28;20603;-62
2023/08/25 16:59:18;;;;;;;8.23;5.90;;;23.00;94.90;;;;;;20994070;28;20067;-61
2023/08/25 17:09:21;;;;;;;8.23;6.78;;;22.60;94.80;;;;;;21021133;28;20036;-62
2023/08/25 17:19:23;;;;;;;8.23;6.75;;;22.20;95.80;;;;;;21012247;28;20432;-61
2023/08/25 17:29:25;;;;;;;8.30;6.32;;;22.10;95.90;;;;;;21001346;28;20040;-61
2023/08/25 17:39:27;;;;;;;10.07;6.78;;;21.90;96.00;;;;;;21053898;28;20085;-61
2023/08/25 17:49:29;;;;;;;8.35;6.65;;;21.40;97.70;;;;;;21054367;28;20382;-61
2023/08/25 17:59:32;;;;;;;8.95;7.47;;;20.90;98.70;;;;;;21052311;28;20040;-61
2023/08/25 18:09:43;;;;;;;10.43;7.53;;;20.70;99.10;;;;;;21052477;28;20036;-61
2023/08/25 18:19:45;;;;;;;9.13;7.70;;;20.60;99.10;;;;;;21053198;28;20040;-61
2023/08/25 18:29:47;;;;;;;9.63;7.72;;;20.70;99.20;;;;;;21051918;28;20358;-61
2023/08/25 18:39:49;;;;;;;11.55;7.35;;;20.70;99.50;;;;;;21051302;28;20036;-61
2023/08/25 18:49:51;;;;;;;10.10;7.95;;;20.50;99.90;;;;;;21055574;28;20040;-61
2023/08/25 18:59:53;;;;;;;9.93;8.45;;;20.30;99.90;;;;;;21056432;28;20173;-52
2023/08/25 19:09:57;;;;;;;12.02;8.25;;;20.20;99.90;;;;;;21043624;28;20069;-61
2023/08/25 19:20:00;;;;;;;11.05;8.65;;;20.10;99.90;;;;;;21064129;28;20043;-61
2023/08/25 19:30:03;;;;;;;11.88;7.82;;;20.10;99.90;;;;;;21064510;28;20062;-61
2023/08/25 19:40:09;;;;;;;10.18;7.13;;;20.20;99.90;;;;;;21063397;28;20436;-62
2023/08/25 19:50:12;;;;;;;10.73;7.78;;;20.40;99.90;;;;;;21043671;28;20161;-61
2023/08/25 20:00:15;;;;;;;11.48;8.05;;;20.30;99.90;;;;;;21037424;28;20045;-61
2023/08/25 20:10:18;;;;;;;9.48;7.90;;;20.30;99.90;;;;;;21040022;28;20046;-61
2023/08/25 20:20:22;;;;;;;8.63;7.40;;;20.20;99.90;;;;;;21059388;28;20493;-62
2023/08/25 20:30:25;;;;;;;10.05;7.68;;;20.10;99.90;;;;;;21059511;28;20036;-62
2023/08/25 20:40:27;;;;;;;10.52;8.70;;;19.80;99.90;;;;;;21052484;28;20035;-62
2023/08/25 20:50:29;;;;;;;11.40;9.65;;;19.90;99.90;;;;;;20975188;28;20043;-62
2023/08/25 21:00:33;;;;;;;12.80;10.05;;;20.00;99.90;;;;;;20995014;28;20031;-62
2023/08/25 21:10:36;;;;;;;18.20;11.77;;;19.90;99.90;;;;;;21003061;28;20109;-62
2023/08/25 21:20:39;;;;;;;14.90;10.52;;;19.70;99.90;;;;;;21056024;28;20036;-62
2023/08/25 21:30:40;;;;;;;13.10;11.75;;;19.70;99.90;;;;;;21054240;28;20027;-62
2023/08/25 21:40:43;;;;;;;15.48;11.20;;;19.50;99.90;;;;;;21022883;28;20093;-62
2023/08/25 21:50:46;;;;;;;16.40;12.30;;;19.80;99.90;;;;;;20973824;28;20028;-62
2023/08/25 22:00:50;;;;;;;14.57;11.93;;;20.10;99.90;;;;;;20981051;28;20062;-62
2023/08/25 22:10:52;;;;;;;16.23;13.63;;;19.90;99.90;;;;;;21052664;28;20085;-62
2023/08/25 22:20:56;;;;;;;15.77;13.13;;;19.60;99.90;;;;;;21052929;28;20132;-63
2023/08/25 22:30:58;;;;;;;17.02;13.43;;;19.50;99.90;;;;;;21068445;28;20085;-62
2023/08/25 22:41:00;;;;;;;17.48;14.80;;;19.40;99.90;;;;;;21068774;28;20024;-62
2023/08/25 22:51:03;;;;;;;17.73;13.80;;;19.30;99.90;;;;;;21068436;28;20081;-62
2023/08/25 23:01:05;;;;;;;16.58;13.13;;;19.20;99.90;;;;;;21055497;28;20500;-62
2023/08/25 23:11:08;;;;;;;13.85;11.98;;;19.00;99.90;;;;;;21052778;28;20028;-62
2023/08/25 23:21:10;;;;;;;11.82;10.52;;;18.90;99.90;;;;;;21064851;28;20040;-49
2023/08/25 23:31:12;;;;;;;11.55;10.35;;;18.70;99.90;;;;;;21065885;28;20032;-61
2023/08/25 23:41:13;;;;;;;10.15;9.05;;;18.50;99.90;;;;;;21062350;28;20044;-61
2023/08/25 23:51:15;;;;;;;14.00;9.70;;;18.30;99.90;;;;;;21063465;28;20070;-62
